createdAt,value
2019-03-27T06:05:30.325Z,101.25
2019-03-27T06:06:27.070Z,101.25
2019-03-27T06:07:26.914Z,101.25
2019-03-27T06:08:27.013Z,84.38
2019-03-27T06:09:27.012Z,95.63
2019-03-27T06:10:26.941Z,84.38
2019-03-27T06:11:26.892Z,73.13
2019-03-27T06:12:27.150Z,78.75
2019-03-27T06:13:27.050Z,84.38
2019-03-27T06:14:27.042Z,90.00
2019-03-27T06:15:26.927Z,84.38
2019-03-27T06:16:26.995Z,78.75
2019-03-27T06:17:27.137Z,73.13
2019-03-27T06:18:27.296Z,95.63
2019-03-27T06:19:27.019Z,95.63
2019-03-27T06:20:26.958Z,90.00
2019-03-27T06:21:26.892Z,101.25
2019-03-27T06:22:26.894Z,118.13
2019-03-27T06:23:26.976Z,118.13
2019-03-27T06:24:26.969Z,123.75
2019-03-27T06:25:26.910Z,112.50
2019-03-27T06:26:26.987Z,95.63
2019-03-27T06:27:26.908Z,90.00
2019-03-27T06:28:26.919Z,95.63
2019-03-27T06:29:26.941Z,101.25
2019-03-27T06:30:26.920Z,101.25
2019-03-27T06:31:26.939Z,101.25
2019-03-27T06:32:26.948Z,129.38
2019-03-27T06:33:26.964Z,135.00
2019-03-27T06:34:26.970Z,101.25
2019-03-27T06:35:26.938Z,101.25
2019-03-27T06:36:26.947Z,106.88
2019-03-27T06:37:26.965Z,101.25
2019-03-27T06:38:26.941Z,101.25
2019-03-27T06:39:26.981Z,123.75
2019-03-27T06:40:27.006Z,118.13
2019-03-27T06:41:26.968Z,106.88
2019-03-27T06:42:26.973Z,112.50
2019-03-27T06:43:27.020Z,101.25
2019-03-27T06:44:27.040Z,101.25
2019-03-27T06:45:27.037Z,112.50
2019-03-27T06:46:27.045Z,112.50
2019-03-27T06:47:26.985Z,129.38
2019-03-27T06:48:26.989Z,135.00
2019-03-27T06:49:26.983Z,135.00
2019-03-27T06:50:27.234Z,129.38
2019-03-27T06:51:39.444Z,140.63
2019-03-27T06:52:27.012Z,180.00
2019-03-27T06:53:27.010Z,191.25
2019-03-27T06:54:27.021Z,140.63
2019-03-27T06:55:27.027Z,129.38
2019-03-27T06:56:27.098Z,129.38
2019-03-27T06:57:27.026Z,123.75
2019-03-27T06:58:27.043Z,146.25
2019-03-27T06:59:27.056Z,174.38
2019-03-27T07:00:27.049Z,180.00
2019-03-27T07:01:27.096Z,174.38
2019-03-27T07:02:28.764Z,196.88
2019-03-27T07:03:27.258Z,219.38
2019-03-27T07:04:27.087Z,230.63
2019-03-27T07:05:27.095Z,208.13
2019-03-27T07:06:27.129Z,264.38
2019-03-27T07:07:27.078Z,270.00
2019-03-27T07:08:27.095Z,275.63
2019-03-27T07:09:27.096Z,281.25
2019-03-27T07:10:27.115Z,309.38
2019-03-27T07:11:27.151Z,275.63
2019-03-27T07:12:27.136Z,270.00
2019-03-27T07:13:27.127Z,286.88
2019-03-27T07:14:27.119Z,309.38
2019-03-27T07:15:27.230Z,331.88
2019-03-27T07:16:27.133Z,343.13
2019-03-27T07:17:27.415Z,405.00
2019-03-27T07:18:39.514Z,410.63
2019-03-27T07:19:27.155Z,410.63
2019-03-27T07:20:27.180Z,348.75
2019-03-27T07:21:27.157Z,303.75
2019-03-27T07:22:27.190Z,360.00
2019-03-27T07:23:27.201Z,376.88
2019-03-27T07:24:27.206Z,399.38
2019-03-27T07:25:27.167Z,421.88
2019-03-27T07:26:27.182Z,450.00
2019-03-27T07:27:27.189Z,438.75
2019-03-27T07:28:27.249Z,489.38
2019-03-27T07:29:27.520Z,500.63
2019-03-27T07:30:27.266Z,483.75
2019-03-27T07:31:27.203Z,461.25
2019-03-27T07:32:27.237Z,455.63
2019-03-27T07:33:27.272Z,455.63
2019-03-27T07:34:27.434Z,455.63
2019-03-27T07:35:27.295Z,461.25
2019-03-27T07:36:27.292Z,427.50
2019-03-27T07:37:27.248Z,472.50
2019-03-27T07:38:27.239Z,495.00
2019-03-27T07:39:27.246Z,500.63
2019-03-27T07:40:27.315Z,506.25
2019-03-27T07:41:27.266Z,478.13
2019-03-27T07:42:28.883Z,455.63
2019-03-27T07:43:27.285Z,410.63
2019-03-27T07:44:27.286Z,421.88
2019-03-27T07:45:27.288Z,433.13
2019-03-27T07:46:27.395Z,416.25
2019-03-27T07:47:27.372Z,365.63
2019-03-27T07:48:27.312Z,337.50
2019-03-27T07:49:27.341Z,399.38
2019-03-27T07:50:27.295Z,416.25
2019-03-27T07:51:27.348Z,416.25
2019-03-27T07:52:27.338Z,421.88
2019-03-27T07:53:27.379Z,427.50
2019-03-27T07:54:27.342Z,427.50
2019-03-27T07:55:27.361Z,421.88
2019-03-27T07:56:27.370Z,416.25
2019-03-27T07:57:27.383Z,405.00
2019-03-27T07:58:27.383Z,393.75
2019-03-27T07:59:27.426Z,393.75
2019-03-27T08:00:27.391Z,382.50
2019-03-27T08:01:27.448Z,365.63
2019-03-27T08:02:27.433Z,348.75
2019-03-27T08:03:27.409Z,337.50
2019-03-27T08:04:27.409Z,326.25
2019-03-27T08:05:27.416Z,315.00
2019-03-27T08:06:27.694Z,315.00
2019-03-27T08:07:27.458Z,320.63
2019-03-27T08:08:27.460Z,331.88
2019-03-27T08:09:27.467Z,337.50
2019-03-27T08:10:27.423Z,343.13
2019-03-27T08:11:27.519Z,331.88
2019-03-27T08:12:27.442Z,331.88
2019-03-27T08:13:27.450Z,388.13
2019-03-27T08:14:27.497Z,388.13
2019-03-27T08:15:27.501Z,348.75
2019-03-27T08:16:27.496Z,382.50
2019-03-27T08:17:27.500Z,388.13
2019-03-27T08:18:27.718Z,388.13
2019-03-27T08:19:27.505Z,399.38
2019-03-27T08:20:27.521Z,410.63
2019-03-27T08:21:30.882Z,433.13
2019-03-27T08:22:27.553Z,455.63
2019-03-27T08:23:27.561Z,455.63
2019-03-27T08:24:27.624Z,455.63
2019-03-27T08:25:27.547Z,450.00
2019-03-27T08:26:27.534Z,388.13
2019-03-27T08:27:27.566Z,348.75
2019-03-27T08:28:27.747Z,382.50
2019-03-27T08:29:27.545Z,444.38
2019-03-27T08:30:27.608Z,472.50
2019-03-27T08:31:27.682Z,489.38
2019-03-27T08:32:27.599Z,506.25
2019-03-27T08:33:27.577Z,461.25
2019-03-27T08:34:27.716Z,433.13
2019-03-27T08:35:27.625Z,421.88
2019-03-27T08:36:27.644Z,444.38
2019-03-27T08:37:27.627Z,461.25
2019-03-27T08:38:27.676Z,455.63
2019-03-27T08:39:27.883Z,421.88
2019-03-27T08:40:27.630Z,365.63
2019-03-27T08:41:27.707Z,326.25
2019-03-27T08:42:27.757Z,320.63
2019-03-27T08:43:27.713Z,298.13
2019-03-27T08:44:27.716Z,303.75
2019-03-27T08:45:27.861Z,343.13
2019-03-27T08:46:27.819Z,371.25
2019-03-27T08:47:27.711Z,393.75
2019-03-27T08:48:27.756Z,371.25
2019-03-27T08:49:27.694Z,292.50
2019-03-27T08:50:27.753Z,275.63
2019-03-27T08:51:27.699Z,315.00
2019-03-27T08:52:27.884Z,382.50
2019-03-27T08:53:27.804Z,444.38
2019-03-27T08:54:27.724Z,461.25
2019-03-27T08:55:27.742Z,427.50
2019-03-27T08:56:27.733Z,405.00
2019-03-27T08:57:27.762Z,405.00
2019-03-27T08:58:27.773Z,416.25
2019-03-27T08:59:27.804Z,483.75
2019-03-27T09:00:27.758Z,393.75
2019-03-27T09:01:27.764Z,354.38
2019-03-27T09:02:27.766Z,433.13
2019-03-27T09:03:27.772Z,568.13
2019-03-27T09:04:27.787Z,618.75
2019-03-27T09:05:27.834Z,590.63
2019-03-27T09:06:33.536Z,523.13
2019-03-27T09:07:27.832Z,455.63
2019-03-27T09:08:27.886Z,382.50
2019-03-27T09:09:27.870Z,354.38
2019-03-27T09:10:27.852Z,388.13
2019-03-27T09:11:27.839Z,421.88
2019-03-27T09:12:27.884Z,427.50
2019-03-27T09:13:27.869Z,388.13
2019-03-27T09:14:27.884Z,331.88
2019-03-27T09:15:27.901Z,348.75
2019-03-27T09:16:27.971Z,331.88
2019-03-27T09:17:27.899Z,331.88
2019-03-27T09:18:27.910Z,405.00
2019-03-27T09:19:35.584Z,506.25
2019-03-27T09:20:27.971Z,495.00
2019-03-27T09:21:27.918Z,405.00
2019-03-27T09:22:27.935Z,433.13
2019-03-27T09:23:27.905Z,478.13
2019-03-27T09:24:27.905Z,562.50
2019-03-27T09:25:27.974Z,635.63
2019-03-27T09:26:28.035Z,669.38
2019-03-27T09:27:27.970Z,742.50
2019-03-27T09:28:27.933Z,753.75
2019-03-27T09:29:27.969Z,658.13
2019-03-27T09:30:28.040Z,675.00
2019-03-27T09:31:28.034Z,708.75
2019-03-27T09:32:28.004Z,663.75
2019-03-27T09:33:28.016Z,686.25
2019-03-27T09:34:28.021Z,691.88
2019-03-27T09:35:27.981Z,669.38
2019-03-27T09:36:28.049Z,579.38
2019-03-27T09:37:28.136Z,517.50
2019-03-27T09:38:28.111Z,506.25
2019-03-27T09:39:28.055Z,483.75
2019-03-27T09:40:28.142Z,455.63
2019-03-27T09:41:28.071Z,444.38
2019-03-27T09:42:28.089Z,427.50
2019-03-27T09:43:28.079Z,478.13
2019-03-27T09:44:28.045Z,551.25
2019-03-27T09:45:28.085Z,613.13
2019-03-27T09:46:28.097Z,601.88
2019-03-27T09:47:28.108Z,601.88
2019-03-27T09:48:28.130Z,613.13
2019-03-27T09:49:28.108Z,562.50
2019-03-27T09:50:28.125Z,562.50
2019-03-27T09:51:28.126Z,680.63
2019-03-27T09:52:28.130Z,675.00
2019-03-27T09:53:28.150Z,562.50
2019-03-27T09:54:28.159Z,478.13
2019-03-27T09:55:28.167Z,562.50
2019-03-27T09:56:28.154Z,523.13
2019-03-27T09:57:28.165Z,483.75
2019-03-27T09:58:28.246Z,421.88
2019-03-27T09:59:28.181Z,365.63
2019-03-27T10:00:28.189Z,388.13
2019-03-27T10:01:28.202Z,393.75
2019-03-27T10:02:28.260Z,388.13
2019-03-27T10:03:28.238Z,427.50
2019-03-27T10:04:28.263Z,416.25
2019-03-27T10:05:28.258Z,421.88
2019-03-27T10:06:28.266Z,421.88
2019-03-27T10:07:28.270Z,382.50
2019-03-27T10:08:28.304Z,343.13
2019-03-27T10:09:28.255Z,382.50
2019-03-27T10:10:28.261Z,388.13
2019-03-27T10:11:28.269Z,416.25
2019-03-27T10:12:28.299Z,410.63
2019-03-27T10:13:28.310Z,416.25
2019-03-27T10:14:28.333Z,466.88
2019-03-27T10:15:28.320Z,500.63
2019-03-27T10:16:28.364Z,450.00
2019-03-27T10:17:28.353Z,433.13
2019-03-27T10:18:28.317Z,478.13
2019-03-27T10:19:28.371Z,455.63
2019-03-27T10:20:28.386Z,444.38
2019-03-27T10:21:28.362Z,444.38
2019-03-27T10:22:28.340Z,450.00
2019-03-27T10:23:28.408Z,472.50
2019-03-27T10:24:28.380Z,450.00
2019-03-27T10:25:28.471Z,483.75
2019-03-27T10:26:28.375Z,478.13
2019-03-27T10:27:28.391Z,472.50
2019-03-27T10:28:28.405Z,511.88
2019-03-27T10:29:28.409Z,461.25
2019-03-27T10:30:37.437Z,376.88
2019-03-27T10:31:28.417Z,354.38
2019-03-27T10:32:28.525Z,348.75
2019-03-27T10:33:28.424Z,376.88
2019-03-27T10:34:28.418Z,388.13
2019-03-27T10:35:28.444Z,348.75
2019-03-27T10:36:28.451Z,348.75
2019-03-27T10:37:28.539Z,388.13
2019-03-27T10:38:28.456Z,483.75
2019-03-27T10:39:28.464Z,551.25
2019-03-27T10:40:28.487Z,534.38
2019-03-27T10:41:28.609Z,506.25
2019-03-27T10:42:28.500Z,506.25
2019-03-27T10:43:28.505Z,540.00
2019-03-27T10:44:28.507Z,618.75
2019-03-27T10:45:28.520Z,545.63
2019-03-27T10:46:28.636Z,500.63
2019-03-27T10:47:28.558Z,500.63
2019-03-27T10:48:28.545Z,478.13
2019-03-27T10:49:28.552Z,461.25
2019-03-27T10:50:28.611Z,421.88
2019-03-27T10:51:28.561Z,354.38
2019-03-27T10:52:28.583Z,343.13
2019-03-27T10:53:28.573Z,382.50
2019-03-27T10:54:28.706Z,438.75
2019-03-27T10:55:28.597Z,489.38
2019-03-27T10:56:28.590Z,472.50
2019-03-27T10:57:28.606Z,489.38
2019-03-27T10:58:28.604Z,450.00
2019-03-27T10:59:28.745Z,506.25
2019-03-27T11:00:28.638Z,511.88
2019-03-27T11:01:28.789Z,450.00
2019-03-27T11:02:28.680Z,461.25
2019-03-27T11:03:28.684Z,534.38
2019-03-27T11:04:28.662Z,551.25
2019-03-27T11:05:28.654Z,551.25
2019-03-27T11:06:28.680Z,579.38
2019-03-27T11:07:28.679Z,568.13
2019-03-27T11:08:28.775Z,517.50
2019-03-27T11:09:28.683Z,562.50
2019-03-27T11:10:28.793Z,607.50
2019-03-27T11:11:28.712Z,613.13
2019-03-27T11:12:28.753Z,568.13
2019-03-27T11:13:28.787Z,562.50
2019-03-27T11:14:37.796Z,545.63
2019-03-27T11:15:28.727Z,489.38
2019-03-27T11:16:28.769Z,511.88
2019-03-27T11:17:28.778Z,472.50
2019-03-27T11:18:28.753Z,489.38
2019-03-27T11:19:28.783Z,562.50
2019-03-27T11:20:31.207Z,568.13
2019-03-27T11:21:28.773Z,607.50
2019-03-27T11:22:28.779Z,675.00
2019-03-27T11:23:28.791Z,635.63
2019-03-27T11:24:29.087Z,478.13
2019-03-27T11:25:28.823Z,410.63
2019-03-27T11:26:28.867Z,354.38
2019-03-27T11:27:28.825Z,303.75
2019-03-27T11:28:28.820Z,303.75
2019-03-27T11:29:28.890Z,286.88
2019-03-27T11:30:28.847Z,281.25
2019-03-27T11:31:28.885Z,275.63
2019-03-27T11:32:28.950Z,264.38
2019-03-27T11:33:29.134Z,286.88
2019-03-27T11:34:28.929Z,371.25
2019-03-27T11:35:28.878Z,495.00
2019-03-27T11:36:28.907Z,568.13
2019-03-27T11:37:28.887Z,652.50
2019-03-27T11:38:28.937Z,708.75
2019-03-27T11:39:28.950Z,697.50
2019-03-27T11:40:28.973Z,646.88
2019-03-27T11:41:28.922Z,568.13
2019-03-27T11:42:28.948Z,495.00
2019-03-27T11:43:28.952Z,427.50
2019-03-27T11:44:28.937Z,472.50
2019-03-27T11:45:28.992Z,551.25
2019-03-27T11:46:32.101Z,607.50
2019-03-27T11:47:28.967Z,691.88
2019-03-27T11:48:29.014Z,725.63
2019-03-27T11:49:29.059Z,663.75
2019-03-27T11:50:29.009Z,511.88
2019-03-27T11:51:29.017Z,461.25
2019-03-27T11:52:29.911Z,450.00
2019-03-27T11:53:29.023Z,405.00
2019-03-27T11:54:29.108Z,337.50
2019-03-27T11:55:29.048Z,298.13
2019-03-27T11:56:29.069Z,320.63
2019-03-27T11:57:29.067Z,421.88
2019-03-27T11:58:29.108Z,483.75
2019-03-27T11:59:29.068Z,410.63
2019-03-27T12:00:29.103Z,399.38
2019-03-27T12:01:38.905Z,511.88
2019-03-27T12:02:29.125Z,596.25
2019-03-27T12:03:29.165Z,618.75
2019-03-27T12:04:29.117Z,663.75
2019-03-27T12:05:29.154Z,720.00
2019-03-27T12:06:29.135Z,691.88
2019-03-27T12:07:29.155Z,680.63
2019-03-27T12:08:29.138Z,680.63
2019-03-27T12:09:29.163Z,635.63
2019-03-27T12:10:29.151Z,618.75
2019-03-27T12:11:29.178Z,646.88
2019-03-27T12:12:29.167Z,652.50
2019-03-27T12:13:29.179Z,658.13
2019-03-27T12:14:29.220Z,613.13
2019-03-27T12:15:29.191Z,523.13
2019-03-27T12:16:29.223Z,405.00
2019-03-27T12:17:29.204Z,354.38
2019-03-27T12:18:31.841Z,388.13
2019-03-27T12:19:29.274Z,382.50
2019-03-27T12:20:29.232Z,337.50
2019-03-27T12:21:29.240Z,292.50
2019-03-27T12:22:29.278Z,309.38
2019-03-27T12:23:29.319Z,320.63
2019-03-27T12:24:29.262Z,309.38
2019-03-27T12:25:29.303Z,309.38
2019-03-27T12:26:29.299Z,354.38
2019-03-27T12:27:29.295Z,427.50
2019-03-27T12:28:29.295Z,472.50
2019-03-27T12:29:29.362Z,489.38
2019-03-27T12:30:29.334Z,421.88
2019-03-27T12:31:29.313Z,320.63
2019-03-27T12:32:29.325Z,275.63
2019-03-27T12:33:29.361Z,253.13
2019-03-27T12:34:29.368Z,253.13
2019-03-27T12:35:29.376Z,241.88
2019-03-27T12:36:29.401Z,225.00
2019-03-27T12:37:29.381Z,219.38
2019-03-27T12:38:29.381Z,253.13
2019-03-27T12:39:29.447Z,298.13
2019-03-27T12:40:29.404Z,298.13
2019-03-27T12:41:29.416Z,315.00
2019-03-27T12:42:29.419Z,326.25
2019-03-27T12:43:29.421Z,337.50
2019-03-27T12:44:29.449Z,348.75
2019-03-27T12:45:29.461Z,354.38
2019-03-27T12:46:29.455Z,382.50
2019-03-27T12:47:29.450Z,416.25
2019-03-27T12:48:29.462Z,371.25
2019-03-27T12:49:29.464Z,410.63
2019-03-27T12:50:29.509Z,472.50
2019-03-27T12:51:29.489Z,433.13
2019-03-27T12:52:29.491Z,360.00
2019-03-27T12:53:29.493Z,315.00
2019-03-27T12:54:29.529Z,315.00
2019-03-27T12:55:29.555Z,331.88
2019-03-27T12:56:29.531Z,292.50
2019-03-27T12:57:29.543Z,292.50
2019-03-27T12:58:29.530Z,315.00
2019-03-27T12:59:29.529Z,320.63
2019-03-27T13:00:29.538Z,270.00
2019-03-27T13:01:29.616Z,236.25
2019-03-27T13:02:29.553Z,230.63
2019-03-27T13:03:29.560Z,230.63
2019-03-27T13:04:29.577Z,247.50
2019-03-27T13:05:29.593Z,258.75
2019-03-27T13:06:29.642Z,270.00
2019-03-27T13:07:29.596Z,326.25
2019-03-27T13:08:29.612Z,478.13
2019-03-27T13:09:29.635Z,478.13
2019-03-27T13:10:29.672Z,393.75
2019-03-27T13:11:29.822Z,388.13
2019-03-27T13:12:29.639Z,371.25
2019-03-27T13:13:29.646Z,326.25
2019-03-27T13:14:29.649Z,298.13
2019-03-27T13:15:29.686Z,286.88
2019-03-27T13:16:29.697Z,275.63
2019-03-27T13:17:29.724Z,253.13
2019-03-27T13:18:29.688Z,247.50
2019-03-27T13:19:29.743Z,225.00
2019-03-27T13:20:29.699Z,208.13
2019-03-27T13:21:29.723Z,213.75
2019-03-27T13:22:29.797Z,241.88
2019-03-27T13:23:29.756Z,326.25
2019-03-27T13:24:29.716Z,393.75
2019-03-27T13:25:29.731Z,416.25
2019-03-27T13:26:29.765Z,517.50
2019-03-27T13:27:29.736Z,618.75
2019-03-27T13:28:29.751Z,618.75
2019-03-27T13:29:29.798Z,590.63
2019-03-27T13:30:29.757Z,579.38
2019-03-27T13:31:29.770Z,568.13
2019-03-27T13:32:29.771Z,579.38
2019-03-27T13:33:29.856Z,551.25
2019-03-27T13:34:29.861Z,466.88
2019-03-27T13:35:29.801Z,405.00
2019-03-27T13:36:29.805Z,438.75
2019-03-27T13:37:29.855Z,511.88
2019-03-27T13:38:29.816Z,568.13
2019-03-27T13:39:29.868Z,551.25
2019-03-27T13:40:29.872Z,523.13
2019-03-27T13:41:29.841Z,517.50
2019-03-27T13:42:29.844Z,517.50
2019-03-27T13:43:29.855Z,517.50
2019-03-27T13:44:36.792Z,523.13
2019-03-27T13:45:29.890Z,478.13
2019-03-27T13:46:29.907Z,421.88
2019-03-27T13:47:29.882Z,393.75
2019-03-27T13:48:29.911Z,433.13
2019-03-27T13:49:29.921Z,483.75
2019-03-27T13:50:30.017Z,556.88
2019-03-27T13:51:40.605Z,528.75
2019-03-27T13:52:29.920Z,495.00
2019-03-27T13:53:29.948Z,573.75
2019-03-27T13:54:29.950Z,596.25
2019-03-27T13:55:29.983Z,562.50
2019-03-27T13:56:29.969Z,534.38
2019-03-27T13:57:29.985Z,534.38
2019-03-27T13:58:30.000Z,534.38
2019-03-27T13:59:29.985Z,534.38
2019-03-27T14:00:30.006Z,528.75
2019-03-27T14:01:30.029Z,500.63
2019-03-27T14:02:30.076Z,438.75
2019-03-27T14:03:30.036Z,427.50
2019-03-27T14:04:30.037Z,376.88
2019-03-27T14:05:30.027Z,354.38
2019-03-27T14:06:30.051Z,292.50
2019-03-27T14:07:30.057Z,258.75
2019-03-27T14:08:30.071Z,241.88
2019-03-27T14:09:30.101Z,253.13
2019-03-27T14:10:30.078Z,258.75
2019-03-27T14:11:30.096Z,286.88
2019-03-27T14:12:30.085Z,309.38
2019-03-27T14:13:30.137Z,354.38
2019-03-27T14:14:30.110Z,315.00
2019-03-27T14:15:30.106Z,309.38
2019-03-27T14:16:30.173Z,320.63
2019-03-27T14:17:30.138Z,309.38
2019-03-27T14:18:30.159Z,270.00
2019-03-27T14:19:30.235Z,298.13
2019-03-27T14:20:30.168Z,416.25
2019-03-27T14:21:30.157Z,343.13
2019-03-27T14:22:30.159Z,230.63
2019-03-27T14:23:30.155Z,202.50
2019-03-27T14:24:30.200Z,258.75
2019-03-27T14:25:30.173Z,292.50
2019-03-27T14:26:44.084Z,258.75
2019-03-27T14:27:30.236Z,360.00
2019-03-27T14:28:30.245Z,399.38
2019-03-27T14:29:30.205Z,298.13
2019-03-27T14:30:30.212Z,303.75
2019-03-27T14:31:30.289Z,371.25
2019-03-27T14:32:30.242Z,331.88
2019-03-27T14:33:30.296Z,230.63
2019-03-27T14:34:30.260Z,208.13
2019-03-27T14:35:30.261Z,213.75
2019-03-27T14:36:30.258Z,185.63
2019-03-27T14:37:30.277Z,208.13
2019-03-27T14:38:30.318Z,219.38
2019-03-27T14:39:30.333Z,185.63
2019-03-27T14:40:30.327Z,174.38
2019-03-27T14:41:30.295Z,163.13
2019-03-27T14:42:30.325Z,196.88
2019-03-27T14:43:30.310Z,208.13
2019-03-27T14:44:30.324Z,270.00
2019-03-27T14:45:30.462Z,348.75
2019-03-27T14:46:30.337Z,399.38
2019-03-27T14:47:30.341Z,399.38
2019-03-27T14:48:30.407Z,371.25
2019-03-27T14:49:30.360Z,337.50
2019-03-27T14:50:30.417Z,309.38
2019-03-27T14:51:30.410Z,298.13
2019-03-27T14:52:30.380Z,298.13
2019-03-27T14:53:30.384Z,309.38
2019-03-27T14:54:30.431Z,320.63
2019-03-27T14:55:30.398Z,320.63
2019-03-27T14:56:30.459Z,309.38
2019-03-27T14:57:30.441Z,303.75
2019-03-27T14:58:30.426Z,303.75
2019-03-27T14:59:30.436Z,309.38
2019-03-27T15:00:30.435Z,281.25
2019-03-27T15:01:30.486Z,275.63
2019-03-27T15:02:30.450Z,270.00
2019-03-27T15:03:30.472Z,258.75
2019-03-27T15:04:30.460Z,281.25
2019-03-27T15:05:30.510Z,281.25
2019-03-27T15:06:30.492Z,264.38
2019-03-27T15:07:30.510Z,348.75
2019-03-27T15:08:30.497Z,303.75
2019-03-27T15:09:30.492Z,298.13
2019-03-27T15:10:30.518Z,303.75
2019-03-27T15:11:30.508Z,298.13
2019-03-27T15:12:30.549Z,303.75
2019-03-27T15:13:30.535Z,354.38
2019-03-27T15:14:30.542Z,354.38
2019-03-27T15:15:30.536Z,309.38
2019-03-27T15:16:30.599Z,275.63
2019-03-27T15:17:30.583Z,281.25
2019-03-27T15:18:30.577Z,281.25
2019-03-27T15:19:30.566Z,303.75
2019-03-27T15:20:30.672Z,315.00
2019-03-27T15:21:30.594Z,326.25
2019-03-27T15:22:30.613Z,337.50
2019-03-27T15:23:30.635Z,348.75
2019-03-27T15:24:30.637Z,354.38
2019-03-27T15:25:30.608Z,360.00
2019-03-27T15:26:30.648Z,331.88
2019-03-27T15:27:30.627Z,315.00
2019-03-27T15:28:30.701Z,382.50
2019-03-27T15:29:30.650Z,365.63
2019-03-27T15:30:30.710Z,421.88
2019-03-27T15:31:30.782Z,320.63
2019-03-27T15:32:30.659Z,360.00
2019-03-27T15:33:30.709Z,382.50
2019-03-27T15:34:30.714Z,298.13
2019-03-27T15:35:30.838Z,270.00
2019-03-27T15:36:30.728Z,270.00
2019-03-27T15:37:30.706Z,247.50
2019-03-27T15:38:30.709Z,196.88
2019-03-27T15:39:30.760Z,213.75
2019-03-27T15:40:30.759Z,191.25
2019-03-27T15:41:30.765Z,180.00
2019-03-27T15:42:30.740Z,180.00
2019-03-27T15:43:30.775Z,196.88
2019-03-27T15:44:30.779Z,208.13
2019-03-27T15:45:30.841Z,185.63
2019-03-27T15:46:30.794Z,185.63
2019-03-27T15:47:30.797Z,180.00
2019-03-27T15:48:30.784Z,157.50
2019-03-27T15:49:30.792Z,146.25
2019-03-27T15:50:30.942Z,146.25
2019-03-27T15:51:30.922Z,146.25
2019-03-27T15:52:36.448Z,168.75
2019-03-27T15:53:30.877Z,180.00
2019-03-27T15:54:30.965Z,180.00
2019-03-27T15:55:30.859Z,174.38
2019-03-27T15:56:31.084Z,163.13
2019-03-27T15:57:30.861Z,163.13
2019-03-27T15:58:30.854Z,168.75
2019-03-27T15:59:30.858Z,157.50
2019-03-27T16:00:30.882Z,157.50
2019-03-27T16:01:30.909Z,151.88
2019-03-27T16:02:31.020Z,140.63
2019-03-27T16:03:30.884Z,140.63
2019-03-27T16:04:30.930Z,151.88
2019-03-27T16:05:31.693Z,157.50
2019-03-27T16:06:30.954Z,157.50
2019-03-27T16:07:31.355Z,151.88
2019-03-27T16:08:31.075Z,163.13
2019-03-27T16:09:30.932Z,168.75
2019-03-27T16:10:30.957Z,157.50
2019-03-27T16:11:30.967Z,146.25
2019-03-27T16:12:31.001Z,140.63
2019-03-27T16:13:31.009Z,129.38
2019-03-27T16:14:30.985Z,112.50
2019-03-27T16:15:31.043Z,112.50
2019-03-27T16:16:30.976Z,112.50
2019-03-27T16:17:31.107Z,123.75
2019-03-27T16:18:31.034Z,118.13
2019-03-27T16:19:31.279Z,106.88
2019-03-27T16:20:31.062Z,95.63
2019-03-27T16:21:31.021Z,90.00
2019-03-27T16:22:31.062Z,84.38
2019-03-27T16:23:32.434Z,78.75
2019-03-27T16:24:31.093Z,67.50
2019-03-27T16:25:31.101Z,61.88
2019-03-27T16:26:31.067Z,56.25
2019-03-27T16:27:31.111Z,56.25
2019-03-27T16:28:31.173Z,50.63
2019-03-27T16:29:31.110Z,45.00
2019-03-27T16:30:31.549Z,45.00
2019-03-27T16:31:31.094Z,39.38
2019-03-27T16:32:31.085Z,45.00
2019-03-27T16:33:31.105Z,39.38
2019-03-27T16:34:31.123Z,39.38
2019-03-27T16:35:31.136Z,39.38
2019-03-27T16:36:31.169Z,33.75
2019-03-27T16:37:31.169Z,33.75
2019-03-27T16:38:31.263Z,33.75
2019-03-27T16:39:31.163Z,28.13
2019-03-27T16:40:31.225Z,28.13
2019-03-27T16:41:31.171Z,28.13
2019-03-27T16:42:31.161Z,33.75
2019-03-27T16:43:31.195Z,33.75
2019-03-27T16:44:31.251Z,28.13
2019-03-27T16:45:31.200Z,28.13
2019-03-27T16:46:31.198Z,28.13
2019-03-27T16:47:31.214Z,28.13
2019-03-27T16:48:31.286Z,28.13
2019-03-27T16:49:31.228Z,28.13
2019-03-27T16:50:31.260Z,28.13
2019-03-27T16:51:31.273Z,28.13
2019-03-27T16:52:31.255Z,28.13
2019-03-27T16:53:31.244Z,28.13
2019-03-27T16:54:31.266Z,22.50
2019-03-27T16:55:31.269Z,22.50
2019-03-27T16:56:31.865Z,16.88
2019-03-27T16:57:31.292Z,16.88
2019-03-27T16:58:31.259Z,16.88
2019-03-27T16:59:31.286Z,16.88
2019-03-27T17:00:31.307Z,22.50
2019-03-27T17:01:31.333Z,22.50
2019-03-27T17:02:31.416Z,22.50
2019-03-27T17:03:31.297Z,22.50
2019-03-27T17:04:31.318Z,22.50
2019-03-27T17:05:31.324Z,16.88
2019-03-27T17:06:31.344Z,16.88
2019-03-27T17:07:31.369Z,16.88
2019-03-27T17:08:31.347Z,16.88
2019-03-27T17:09:31.364Z,16.88
2019-03-27T17:10:31.368Z,11.25
2019-03-27T17:11:31.399Z,11.25
2019-03-27T17:12:31.676Z,5.63
2019-03-27T17:13:31.397Z,5.63
2019-03-27T17:14:31.373Z,5.63
2019-03-27T17:15:31.416Z,5.63
2019-03-27T17:16:32.376Z,5.63
2019-03-27T17:17:31.459Z,5.63
2019-03-27T17:18:31.417Z,5.63
2019-03-27T17:19:31.423Z,0.00
2019-03-27T17:20:31.434Z,0.00
2019-03-27T17:21:31.427Z,0.00
2019-03-27T17:22:31.468Z,0.00
2019-03-27T17:23:31.455Z,0.00
2019-03-27T17:24:31.469Z,0.00
2019-03-27T17:25:31.549Z,0.00
2019-03-27T17:26:31.475Z,0.00
2019-03-27T17:27:31.472Z,0.00
2019-03-27T17:28:31.646Z,0.00
2019-03-27T17:29:31.484Z,0.00
2019-03-27T17:30:33.369Z,0.00
2019-03-27T17:31:31.857Z,0.00
2019-03-27T17:32:31.512Z,0.00
2019-03-27T17:33:31.608Z,0.00
2019-03-27T17:34:31.515Z,0.00
2019-03-27T17:35:31.507Z,0.00
2019-03-27T17:36:31.513Z,0.00
2019-03-27T17:37:31.590Z,0.00
2019-03-27T17:38:31.591Z,0.00
2019-03-27T17:39:31.541Z,0.00
2019-03-27T17:40:31.561Z,0.00
2019-03-27T17:41:31.572Z,0.00
